createdAt,value
2022-10-21T00:00:01.382Z,10.03
2022-10-21T00:03:02.928Z,9.47
2022-10-21T00:06:05.270Z,10.33
2022-10-21T00:09:06.938Z,9.93
2022-10-21T00:12:08.597Z,9.73
2022-10-21T00:15:10.993Z,9.17
2022-10-21T00:18:12.561Z,9.90
2022-10-21T00:21:15.661Z,9.30
2022-10-21T00:24:17.222Z,9.23
2022-10-21T00:27:18.786Z,10.33
2022-10-21T00:30:20.444Z,9.63
2022-10-21T00:33:22.130Z,9.77
2022-10-21T00:36:23.791Z,9.93
2022-10-21T00:39:25.383Z,9.97
2022-10-21T00:42:32.148Z,10.40
2022-10-21T00:45:33.789Z,10.30
2022-10-21T00:48:45.141Z,10.23
2022-10-21T00:51:48.267Z,9.77
2022-10-21T00:54:52.433Z,10.93
2022-10-21T00:57:54.911Z,11.37
2022-10-21T01:00:57.442Z,10.50
2022-10-21T01:04:01.286Z,11.17
2022-10-21T01:07:03.170Z,11.17
2022-10-21T01:10:05.370Z,11.07
2022-10-21T01:13:15.230Z,11.37
2022-10-21T01:16:33.618Z,11.67
2022-10-21T01:19:38.025Z,11.00
2022-10-21T01:22:42.394Z,11.00
2022-10-21T01:25:43.992Z,11.47
2022-10-21T01:28:58.811Z,10.77
2022-10-21T01:32:00.363Z,11.27
2022-10-21T01:35:05.134Z,11.00
2022-10-21T01:38:12.685Z,11.30
2022-10-21T01:41:19.830Z,11.87
2022-10-21T01:44:27.600Z,11.37
2022-10-21T01:47:32.458Z,11.93
2022-10-21T01:50:37.788Z,12.27
2022-10-21T01:53:43.967Z,11.73
2022-10-21T01:56:45.770Z,11.47
2022-10-21T01:59:47.826Z,11.20
2022-10-21T02:02:49.837Z,11.87
2022-10-21T02:05:51.497Z,11.23
2022-10-21T02:08:53.214Z,11.37
2022-10-21T02:12:01.095Z,11.60
2022-10-21T02:15:03.441Z,12.37
2022-10-21T02:18:06.529Z,12.03
2022-10-21T02:21:10.377Z,13.07
2022-10-21T02:24:15.658Z,11.73
2022-10-21T02:27:17.503Z,11.53
2022-10-21T02:30:19.582Z,11.37
2022-10-21T02:33:27.681Z,11.87
2022-10-21T02:36:35.135Z,12.00
2022-10-21T02:40:02.901Z,12.83
2022-10-21T02:43:16.446Z,12.63
2022-10-21T02:46:18.058Z,12.23
2022-10-21T02:49:19.979Z,13.03
2022-10-21T02:52:24.434Z,11.87
2022-10-21T02:55:26.296Z,13.53
2022-10-21T02:58:28.081Z,14.57
2022-10-21T03:01:29.730Z,14.87
2022-10-21T03:04:31.358Z,13.37
2022-10-21T03:07:42.103Z,10.60
2022-10-21T03:10:48.030Z,11.03
2022-10-21T03:13:54.872Z,12.03
2022-10-21T03:16:56.830Z,10.93
2022-10-21T03:20:01.273Z,11.27
2022-10-21T03:23:02.886Z,11.60
2022-10-21T03:26:04.601Z,10.57
2022-10-21T03:29:06.221Z,11.80
2022-10-21T03:32:08.521Z,10.70
2022-10-21T03:35:10.235Z,12.00
2022-10-21T03:38:11.834Z,11.77
2022-10-21T03:41:13.387Z,12.23
2022-10-21T03:44:14.946Z,12.07
2022-10-21T03:47:16.563Z,12.43
2022-10-21T03:50:23.571Z,13.63
2022-10-21T03:53:42.241Z,13.57
2022-10-21T03:56:45.469Z,14.27
2022-10-21T03:59:47.163Z,13.50
2022-10-21T04:02:48.990Z,15.57
2022-10-21T04:05:50.595Z,13.57
2022-10-21T04:08:52.468Z,13.53
2022-10-21T04:11:54.094Z,13.83
2022-10-21T04:14:58.507Z,13.07
2022-10-21T04:18:00.124Z,13.80
2022-10-21T04:21:01.780Z,13.50
2022-10-21T04:24:03.434Z,22.07
2022-10-21T04:27:05.083Z,13.57
2022-10-21T04:30:09.911Z,13.47
2022-10-21T04:33:11.493Z,18.33
2022-10-21T04:36:13.047Z,11.20
2022-10-21T04:39:14.621Z,11.50
2022-10-21T04:42:16.292Z,12.23
2022-10-21T04:45:18.305Z,12.20
2022-10-21T04:48:20.528Z,13.23
2022-10-21T04:51:22.135Z,13.27
2022-10-21T04:54:23.829Z,13.57
2022-10-21T04:57:25.661Z,13.50
2022-10-21T05:00:27.276Z,14.10
2022-10-21T05:03:28.846Z,14.17
2022-10-21T05:06:30.486Z,15.20
2022-10-21T05:09:32.050Z,13.33
2022-10-21T05:15:40.180Z,13.27
2022-10-21T05:18:41.933Z,14.20
2022-10-21T05:21:43.866Z,13.33
2022-10-21T05:24:45.417Z,14.80
2022-10-21T05:27:47.098Z,13.70
2022-10-21T05:30:48.749Z,13.60
2022-10-21T05:33:50.306Z,13.97
2022-10-21T05:36:51.855Z,15.33
2022-10-21T05:39:53.367Z,14.23
2022-10-21T05:42:54.995Z,14.07
2022-10-21T05:45:57.034Z,13.73
2022-10-21T05:48:58.678Z,15.97
2022-10-21T05:52:00.351Z,14.70
2022-10-21T05:55:01.963Z,13.87
2022-10-21T05:58:03.744Z,13.33
2022-10-21T06:01:05.393Z,15.03
2022-10-21T06:04:07.509Z,16.23
2022-10-21T06:07:09.086Z,15.37
2022-10-21T06:10:12.190Z,14.47
2022-10-21T06:13:13.742Z,15.53
2022-10-21T06:16:15.567Z,15.30
2022-10-21T06:19:17.218Z,13.77
2022-10-21T06:22:18.766Z,14.07
2022-10-21T06:25:21.446Z,16.47
2022-10-21T06:28:23.072Z,17.63
2022-10-21T06:31:24.680Z,17.27
2022-10-21T06:34:26.330Z,16.83
2022-10-21T06:37:27.926Z,15.87
2022-10-21T06:40:29.810Z,14.67
2022-10-21T06:43:31.566Z,13.30
2022-10-21T06:46:33.226Z,14.67
2022-10-21T06:49:34.794Z,12.77
2022-10-21T06:52:36.427Z,16.80
2022-10-21T06:55:37.986Z,15.97
2022-10-21T06:58:43.171Z,16.47
2022-10-21T07:02:01.106Z,12.90
2022-10-21T07:05:04.712Z,10.60
2022-10-21T07:08:10.547Z,9.63
2022-10-21T07:11:14.327Z,9.87
2022-10-21T07:14:16.007Z,9.07
2022-10-21T07:17:17.899Z,8.53
2022-10-21T07:20:19.521Z,8.20
2022-10-21T07:23:21.169Z,8.73
2022-10-21T07:26:23.446Z,8.40
2022-10-21T07:29:24.991Z,10.13
2022-10-21T07:32:26.539Z,8.37
2022-10-21T07:35:28.168Z,9.67
2022-10-21T07:38:29.733Z,8.98
2022-10-21T07:41:32.958Z,10.02
2022-10-21T07:44:34.654Z,9.68
2022-10-21T07:47:36.536Z,13.15
2022-10-21T07:50:38.300Z,11.93
2022-10-21T07:53:40.345Z,11.97
2022-10-21T07:56:44.252Z,15.60
2022-10-21T07:59:45.793Z,138.40
2022-10-21T08:02:47.398Z,86.40
2022-10-21T08:05:49.102Z,20.83
2022-10-21T08:08:51.039Z,120.05
2022-10-21T08:11:52.623Z,46.30
2022-10-21T08:14:54.288Z,35.17
2022-10-21T08:17:55.832Z,25.17
2022-10-21T08:20:57.367Z,30.00
2022-10-21T08:23:59.636Z,17.90
2022-10-21T08:27:01.182Z,18.65
2022-10-21T08:30:02.755Z,28.88
2022-10-21T08:33:04.476Z,23.15
2022-10-21T08:36:06.948Z,8.77
2022-10-21T08:39:08.583Z,5.38
2022-10-21T08:42:17.573Z,5.57
2022-10-21T08:45:33.752Z,5.65
2022-10-21T08:48:56.542Z,4.95
2022-10-21T08:52:03.525Z,5.60
2022-10-21T08:55:06.671Z,5.63
2022-10-21T08:58:23.801Z,6.78
2022-10-21T09:01:28.422Z,5.88
2022-10-21T09:04:50.314Z,5.35
2022-10-21T09:08:10.404Z,6.68
2022-10-21T09:11:31.386Z,7.30
2022-10-21T09:14:51.886Z,8.40
2022-10-21T09:18:02.886Z,6.35
2022-10-21T09:21:05.848Z,5.13
2022-10-21T09:24:11.479Z,4.72
2022-10-21T09:27:13.148Z,4.68
2022-10-21T09:30:16.808Z,4.55
2022-10-21T09:33:26.732Z,4.35
2022-10-21T09:36:38.701Z,4.03
2022-10-21T09:39:42.632Z,4.00
2022-10-21T09:42:48.510Z,4.50
2022-10-21T09:45:50.439Z,5.17
2022-10-21T09:49:36.710Z,4.13
2022-10-21T09:52:15.167Z,4.30
2022-10-21T09:55:16.965Z,4.97
2022-10-21T09:58:44.729Z,3.80
2022-10-21T10:01:46.704Z,4.37
2022-10-21T10:04:48.377Z,5.13
2022-10-21T10:07:50.071Z,5.33
2022-10-21T10:10:51.627Z,4.07
2022-10-21T10:13:53.381Z,4.30
2022-10-21T10:16:55.190Z,4.67
2022-10-21T10:20:16.879Z,4.60
2022-10-21T10:23:19.352Z,4.50
2022-10-21T10:26:34.385Z,3.97
2022-10-21T10:29:37.344Z,4.97
2022-10-21T10:32:39.164Z,4.33
2022-10-21T10:35:47.234Z,4.37
2022-10-21T10:38:53.666Z,3.63
2022-10-21T10:42:00.774Z,4.00
2022-10-21T10:45:06.806Z,3.90
2022-10-21T10:48:31.644Z,4.20
2022-10-21T10:51:37.248Z,3.73
2022-10-21T10:54:40.412Z,3.80
2022-10-21T10:57:59.090Z,3.50
2022-10-21T11:01:13.079Z,3.90
2022-10-21T11:04:38.142Z,4.00
2022-10-21T11:07:54.759Z,4.00
2022-10-21T11:10:59.462Z,3.53
2022-10-21T11:14:01.134Z,4.17
2022-10-21T11:17:16.734Z,3.47
2022-10-21T11:20:27.236Z,4.80
2022-10-21T11:23:35.070Z,3.90
2022-10-21T11:26:42.590Z,4.03
2022-10-21T11:29:44.176Z,4.10
2022-10-21T11:32:53.605Z,4.37
2022-10-21T11:35:58.460Z,3.90
2022-10-21T11:39:03.130Z,3.70
2022-10-21T11:42:07.414Z,5.37
2022-10-21T11:45:11.896Z,4.10
2022-10-21T11:48:16.417Z,4.10
2022-10-21T11:51:33.271Z,3.60
2022-10-21T11:55:09.304Z,4.50
2022-10-21T11:58:17.802Z,4.13
2022-10-21T12:01:24.118Z,4.20
2022-10-21T12:04:40.801Z,4.10
2022-10-21T12:08:11.931Z,4.53
2022-10-21T12:11:15.442Z,4.10
2022-10-21T12:14:19.879Z,4.10
2022-10-21T12:17:22.121Z,4.40
2022-10-21T12:20:26.866Z,4.60
2022-10-21T12:23:29.860Z,3.70
2022-10-21T12:26:42.648Z,4.20
2022-10-21T12:29:52.090Z,4.57
2022-10-21T12:33:06.555Z,4.33
2022-10-21T12:36:16.357Z,4.10
2022-10-21T12:39:33.219Z,4.30
2022-10-21T12:42:34.854Z,4.57
2022-10-21T12:45:38.074Z,4.17
2022-10-21T12:48:48.645Z,4.27
2022-10-21T12:51:52.706Z,4.57
2022-10-21T12:54:59.744Z,4.80
2022-10-21T12:58:02.868Z,4.60
2022-10-21T13:01:05.614Z,4.63
2022-10-21T13:04:30.240Z,4.23
2022-10-21T13:07:32.903Z,4.80
2022-10-21T13:10:34.593Z,5.90
2022-10-21T13:13:46.275Z,4.93
2022-10-21T13:16:48.033Z,5.30
2022-10-21T13:19:57.161Z,4.00
2022-10-21T13:23:18.757Z,4.00
2022-10-21T13:26:22.331Z,4.20
2022-10-21T13:29:24.203Z,4.00
2022-10-21T13:32:25.825Z,3.93
2022-10-21T13:35:36.792Z,4.20
2022-10-21T13:38:46.719Z,4.40
2022-10-21T13:41:55.550Z,4.07
2022-10-21T13:45:00.236Z,4.37
2022-10-21T13:48:03.341Z,4.33
2022-10-21T13:51:19.151Z,4.20
2022-10-21T13:54:21.031Z,4.53
2022-10-21T13:57:22.654Z,4.23
2022-10-21T14:00:31.425Z,5.30
2022-10-21T14:03:33.037Z,4.20
2022-10-21T14:06:37.126Z,4.20
2022-10-21T14:09:40.727Z,4.50
2022-10-21T14:12:44.053Z,8.93
2022-10-21T14:15:45.677Z,4.93
2022-10-21T14:18:48.209Z,16.70
2022-10-21T14:21:52.479Z,6.23
2022-10-21T14:24:56.765Z,4.93
2022-10-21T14:27:59.323Z,5.50
2022-10-21T14:31:01.475Z,6.57
2022-10-21T14:34:07.233Z,7.90
2022-10-21T14:37:12.165Z,8.77
2022-10-21T14:40:32.630Z,7.50
2022-10-21T14:43:37.246Z,9.67
2022-10-21T14:46:46.382Z,7.87
2022-10-21T14:49:49.512Z,8.17
2022-10-21T14:52:52.278Z,8.37
2022-10-21T14:55:56.089Z,8.00
2022-10-21T14:58:59.173Z,9.10
2022-10-21T15:02:01.175Z,9.77
2022-10-21T15:05:22.738Z,9.80
2022-10-21T15:08:26.239Z,10.50
2022-10-21T15:11:28.979Z,9.87
2022-10-21T15:14:32.019Z,10.70
2022-10-21T15:17:33.693Z,11.60
2022-10-21T15:20:35.354Z,29.90
2022-10-21T15:23:36.926Z,16.67
2022-10-21T15:26:40.501Z,12.23
2022-10-21T15:29:45.905Z,17.40
2022-10-21T15:32:47.828Z,19.13
2022-10-21T15:36:05.908Z,15.57
2022-10-21T15:39:09.310Z,21.37
2022-10-21T15:42:12.063Z,26.37
2022-10-21T15:45:14.818Z,29.77
2022-10-21T15:48:16.502Z,28.83
2022-10-21T15:51:18.757Z,37.83
2022-10-21T15:54:20.773Z,48.13
2022-10-21T15:57:22.774Z,28.67
2022-10-21T16:00:24.377Z,23.07
2022-10-21T16:03:28.082Z,23.73
2022-10-21T16:06:29.853Z,23.63
2022-10-21T16:09:31.406Z,22.27
2022-10-21T16:12:33.075Z,30.67
2022-10-21T16:15:34.625Z,22.73
2022-10-21T16:18:36.181Z,20.37
2022-10-21T16:21:37.897Z,26.37
2022-10-21T16:24:39.483Z,19.03
2022-10-21T16:27:55.737Z,21.53
2022-10-21T16:30:59.221Z,18.37
2022-10-21T16:34:00.878Z,20.07
2022-10-21T16:37:02.457Z,18.63
2022-10-21T16:40:12.661Z,20.57
2022-10-21T16:43:16.225Z,20.97
2022-10-21T16:46:22.626Z,26.20
2022-10-21T16:49:27.901Z,24.53
2022-10-21T16:52:29.678Z,24.43
2022-10-21T16:55:31.221Z,27.07
2022-10-21T16:58:32.851Z,25.50
2022-10-21T17:01:34.704Z,25.70
2022-10-21T17:04:36.281Z,27.00
2022-10-21T17:07:38.310Z,25.90
2022-10-21T17:10:40.163Z,25.20
2022-10-21T17:13:42.569Z,26.10
2022-10-21T17:16:45.385Z,27.23
2022-10-21T17:19:47.270Z,25.47
2022-10-21T17:22:48.922Z,25.50
2022-10-21T17:25:50.572Z,27.57
2022-10-21T17:28:52.297Z,27.63
2022-10-21T17:31:53.932Z,29.63
2022-10-21T17:34:55.787Z,29.73
2022-10-21T17:37:57.410Z,35.80
2022-10-21T17:40:59.070Z,34.17
2022-10-21T17:44:01.950Z,32.70
2022-10-21T17:47:03.610Z,44.77
2022-10-21T17:50:05.443Z,37.53
2022-10-21T17:53:07.111Z,47.00
2022-10-21T17:56:08.729Z,46.07
2022-10-21T17:59:10.911Z,33.97
2022-10-21T18:02:13.090Z,32.87
2022-10-21T18:05:15.064Z,38.80
2022-10-21T18:08:16.689Z,29.00
2022-10-21T18:11:19.936Z,27.73
2022-10-21T18:14:21.554Z,27.93
2022-10-21T18:17:23.234Z,29.93
2022-10-21T18:20:24.913Z,19.67
2022-10-21T18:23:26.487Z,23.03
2022-10-21T18:26:29.608Z,24.63
2022-10-21T18:29:31.261Z,22.83
2022-10-21T18:32:33.112Z,20.60
2022-10-21T18:35:34.699Z,22.23
2022-10-21T18:38:36.395Z,25.77
2022-10-21T18:41:38.649Z,25.43
2022-10-21T18:44:40.315Z,24.37
2022-10-21T18:47:47.149Z,25.70
2022-10-21T18:50:48.787Z,23.97
2022-10-21T18:53:52.826Z,23.60
2022-10-21T18:56:55.042Z,25.53
2022-10-21T18:59:56.693Z,26.77
2022-10-21T19:02:58.256Z,25.67
2022-10-21T19:06:16.768Z,23.53
2022-10-21T19:09:19.925Z,21.83
2022-10-21T19:12:23.565Z,21.83
2022-10-21T19:15:25.472Z,22.23
2022-10-21T19:18:27.600Z,23.40
2022-10-21T19:21:29.142Z,22.40
2022-10-21T19:24:30.836Z,23.07
2022-10-21T19:27:32.450Z,22.07
2022-10-21T19:30:34.553Z,21.53
2022-10-21T19:33:36.121Z,21.30
2022-10-21T19:36:37.736Z,21.67
2022-10-21T19:39:39.614Z,22.87
2022-10-21T19:42:41.908Z,23.97
2022-10-21T19:45:43.891Z,23.07
2022-10-21T19:48:45.947Z,23.07
2022-10-21T19:51:47.576Z,24.73
2022-10-21T19:54:49.403Z,23.07
2022-10-21T19:57:50.974Z,21.63
2022-10-21T20:01:00.185Z,22.10
2022-10-21T20:04:02.338Z,22.13
2022-10-21T20:07:03.995Z,21.80
2022-10-21T20:10:05.981Z,23.30
2022-10-21T20:13:07.550Z,21.30
2022-10-21T20:16:13.999Z,20.87
2022-10-21T20:19:15.703Z,21.70
2022-10-21T20:22:17.449Z,17.40
2022-10-21T20:25:18.988Z,18.27
2022-10-21T20:28:20.615Z,16.20
2022-10-21T20:31:22.178Z,18.77
2022-10-21T20:34:24.298Z,17.90
2022-10-21T20:37:25.885Z,19.30
2022-10-21T20:40:27.561Z,19.70
2022-10-21T20:43:29.774Z,18.90
2022-10-21T20:46:35.157Z,20.40
2022-10-21T20:49:36.924Z,18.97
2022-10-21T20:52:38.662Z,19.77
2022-10-21T20:55:52.592Z,19.10
2022-10-21T20:58:54.224Z,17.23
2022-10-21T21:01:55.800Z,17.30
2022-10-21T21:04:57.461Z,19.00
2022-10-21T21:07:59.005Z,17.43
2022-10-21T21:11:01.333Z,17.13
2022-10-21T21:14:02.890Z,19.43
2022-10-21T21:17:04.816Z,18.40
2022-10-21T21:20:06.793Z,16.63
2022-10-21T21:23:08.408Z,19.77
2022-10-21T21:26:14.335Z,18.83
2022-10-21T21:29:15.981Z,18.90
2022-10-21T21:32:19.000Z,17.67
2022-10-21T21:35:20.568Z,17.13
2022-10-21T21:38:22.865Z,18.97
2022-10-21T21:41:25.155Z,17.73
2022-10-21T21:44:26.777Z,18.00
2022-10-21T21:47:28.423Z,16.37
2022-10-21T21:50:30.084Z,15.73
2022-10-21T21:53:31.781Z,15.17
2022-10-21T21:56:34.553Z,15.63
2022-10-21T21:59:36.141Z,16.80
2022-10-21T22:02:37.733Z,14.60
2022-10-21T22:05:39.331Z,14.77
2022-10-21T22:08:42.126Z,15.20
2022-10-21T22:11:43.795Z,14.00
2022-10-21T22:14:45.434Z,13.00
2022-10-21T22:17:48.578Z,13.53
2022-10-21T22:20:50.107Z,12.87
2022-10-21T22:23:51.836Z,11.93
2022-10-21T22:26:53.462Z,13.13
2022-10-21T22:29:55.093Z,10.37
2022-10-21T22:32:56.744Z,9.60
2022-10-21T22:35:58.419Z,10.70
2022-10-21T22:39:00.050Z,10.20
2022-10-21T22:42:02.106Z,10.97
2022-10-21T22:45:03.939Z,10.37
2022-10-21T22:48:05.509Z,10.63
2022-10-21T22:51:07.104Z,10.97
2022-10-21T22:54:19.060Z,9.93
2022-10-21T22:57:21.026Z,11.70
2022-10-21T23:00:22.715Z,11.40
2022-10-21T23:03:24.350Z,10.57
2022-10-21T23:06:25.998Z,11.10
2022-10-21T23:09:27.597Z,11.60
2022-10-21T23:12:29.109Z,10.80
2022-10-21T23:15:30.777Z,10.03
2022-10-21T23:18:32.379Z,9.90
2022-10-21T23:21:34.314Z,9.97
2022-10-21T23:24:35.961Z,10.17
2022-10-21T23:27:37.526Z,10.47
2022-10-21T23:30:39.226Z,10.50
2022-10-21T23:33:40.909Z,9.97
2022-10-21T23:36:42.517Z,10.83
2022-10-21T23:39:44.148Z,10.17
2022-10-21T23:42:45.805Z,10.30
2022-10-21T23:45:48.859Z,9.90
2022-10-21T23:48:50.422Z,10.17
2022-10-21T23:51:51.990Z,10.13
2022-10-21T23:54:53.582Z,9.43
2022-10-21T23:57:57.415Z,9.43
